sensor_id;sensor_type;location;lat;lon;timestamp;temperature;humidity
4687;DHT22;2357;47.316;-1.348;2023-05-29T00:00:17;21.70;99.90
4687;DHT22;2357;47.316;-1.348;2023-05-29T00:02:43;21.60;99.90
4687;DHT22;2357;47.316;-1.348;2023-05-29T00:05:10;21.60;99.90
4687;DHT22;2357;47.316;-1.348;2023-05-29T00:07:37;21.60;99.90
4687;DHT22;2357;47.316;-1.348;2023-05-29T00:10:03;21.50;99.90
4687;DHT22;2357;47.316;-1.348;2023-05-29T00:12:29;21.50;99.90
4687;DHT22;2357;47.316;-1.348;2023-05-29T00:14:55;21.60;99.90
4687;DHT22;2357;47.316;-1.348;2023-05-29T00:17:20;21.50;99.90
4687;DHT22;2357;47.316;-1.348;2023-05-29T00:19:46;21.50;99.90
4687;DHT22;2357;47.316;-1.348;2023-05-29T00:22:12;21.20;99.90
4687;DHT22;2357;47.316;-1.348;2023-05-29T00:24:38;21.20;99.90
4687;DHT22;2357;47.316;-1.348;2023-05-29T00:27:04;21.20;99.90
4687;DHT22;2357;47.316;-1.348;2023-05-29T00:29:29;21.30;99.90
4687;DHT22;2357;47.316;-1.348;2023-05-29T00:31:56;21.30;99.90
4687;DHT22;2357;47.316;-1.348;2023-05-29T00:34:22;21.30;99.90
4687;DHT22;2357;47.316;-1.348;2023-05-29T00:36:51;21.30;99.90
4687;DHT22;2357;47.316;-1.348;2023-05-29T00:39:17;21.00;99.90
4687;DHT22;2357;47.316;-1.348;2023-05-29T00:41:43;21.10;99.90
4687;DHT22;2357;47.316;-1.348;2023-05-29T00:44:08;21.00;99.90
4687;DHT22;2357;47.316;-1.348;2023-05-29T00:46:34;21.10;99.90
4687;DHT22;2357;47.316;-1.348;2023-05-29T00:49:01;21.00;99.90
4687;DHT22;2357;47.316;-1.348;2023-05-29T00:51:27;20.90;99.90
4687;DHT22;2357;47.316;-1.348;2023-05-29T00:53:54;20.90;99.90
4687;DHT22;2357;47.316;-1.348;2023-05-29T00:56:21;20.90;99.90
4687;DHT22;2357;47.316;-1.348;2023-05-29T00:58:49;20.90;99.90
4687;DHT22;2357;47.316;-1.348;2023-05-29T01:01:16;20.90;99.90
4687;DHT22;2357;47.316;-1.348;2023-05-29T01:03:43;20.90;99.90
4687;DHT22;2357;47.316;-1.348;2023-05-29T01:06:09;20.80;99.90
4687;DHT22;2357;47.316;-1.348;2023-05-29T01:08:35;20.70;99.90
4687;DHT22;2357;47.316;-1.348;2023-05-29T01:11:15;20.60;99.90
4687;DHT22;2357;47.316;-1.348;2023-05-29T01:13:44;20.50;99.90
4687;DHT22;2357;47.316;-1.348;2023-05-29T01:19:30;20.50;99.90
4687;DHT22;2357;47.316;-1.348;2023-05-29T01:24:56;20.40;99.90
4687;DHT22;2357;47.316;-1.348;2023-05-29T01:27:24;20.40;99.90
4687;DHT22;2357;47.316;-1.348;2023-05-29T01:29:52;20.40;99.90
4687;DHT22;2357;47.316;-1.348;2023-05-29T01:32:21;20.40;99.90
4687;DHT22;2357;47.316;-1.348;2023-05-29T01:34:46;20.50;99.90
4687;DHT22;2357;47.316;-1.348;2023-05-29T01:37:12;20.40;99.90
4687;DHT22;2357;47.316;-1.348;2023-05-29T01:39:38;20.30;99.90
4687;DHT22;2357;47.316;-1.348;2023-05-29T01:42:05;20.30;99.90
4687;DHT22;2357;47.316;-1.348;2023-05-29T01:44:31;20.30;99.90
4687;DHT22;2357;47.316;-1.348;2023-05-29T01:46:57;20.20;99.90
4687;DHT22;2357;47.316;-1.348;2023-05-29T01:49:23;20.10;99.90
4687;DHT22;2357;47.316;-1.348;2023-05-29T01:51:50;20.20;99.90
4687;DHT22;2357;47.316;-1.348;2023-05-29T01:54:15;20.10;99.90
4687;DHT22;2357;47.316;-1.348;2023-05-29T01:56:41;20.10;99.90
4687;DHT22;2357;47.316;-1.348;2023-05-29T01:59:07;20.00;99.90
4687;DHT22;2357;47.316;-1.348;2023-05-29T02:01:33;20.00;99.90
4687;DHT22;2357;47.316;-1.348;2023-05-29T02:03:59;19.90;99.90
4687;DHT22;2357;47.316;-1.348;2023-05-29T02:06:25;20.10;99.90
4687;DHT22;2357;47.316;-1.348;2023-05-29T02:08:50;20.00;99.90
4687;DHT22;2357;47.316;-1.348;2023-05-29T02:11:16;19.90;99.90
4687;DHT22;2357;47.316;-1.348;2023-05-29T02:13:42;19.90;99.90
4687;DHT22;2357;47.316;-1.348;2023-05-29T02:16:07;19.90;99.90
4687;DHT22;2357;47.316;-1.348;2023-05-29T02:18:33;19.90;99.90
4687;DHT22;2357;47.316;-1.348;2023-05-29T02:21:00;19.80;99.90
4687;DHT22;2357;47.316;-1.348;2023-05-29T02:23:25;19.80;99.90
4687;DHT22;2357;47.316;-1.348;2023-05-29T02:25:51;19.80;99.90
4687;DHT22;2357;47.316;-1.348;2023-05-29T02:28:17;19.70;99.90
4687;DHT22;2357;47.316;-1.348;2023-05-29T02:30:42;19.70;99.90
4687;DHT22;2357;47.316;-1.348;2023-05-29T02:33:08;19.70;99.90
4687;DHT22;2357;47.316;-1.348;2023-05-29T02:35:34;19.50;99.90
4687;DHT22;2357;47.316;-1.348;2023-05-29T02:37:59;19.50;99.90
4687;DHT22;2357;47.316;-1.348;2023-05-29T02:40:25;19.50;99.90
4687;DHT22;2357;47.316;-1.348;2023-05-29T02:42:51;19.40;99.90
4687;DHT22;2357;47.316;-1.348;2023-05-29T02:45:17;19.30;99.90
4687;DHT22;2357;47.316;-1.348;2023-05-29T02:47:42;19.30;99.90
4687;DHT22;2357;47.316;-1.348;2023-05-29T02:50:09;19.40;99.90
4687;DHT22;2357;47.316;-1.348;2023-05-29T02:52:35;19.30;99.90
4687;DHT22;2357;47.316;-1.348;2023-05-29T02:55:02;19.30;99.90
4687;DHT22;2357;47.316;-1.348;2023-05-29T02:57:29;19.30;99.90
4687;DHT22;2357;47.316;-1.348;2023-05-29T02:59:56;19.20;99.90
4687;DHT22;2357;47.316;-1.348;2023-05-29T03:02:21;19.20;99.90
4687;DHT22;2357;47.316;-1.348;2023-05-29T03:04:47;19.10;99.90
4687;DHT22;2357;47.316;-1.348;2023-05-29T03:07:16;19.10;99.90
4687;DHT22;2357;47.316;-1.348;2023-05-29T03:09:41;19.10;99.90
4687;DHT22;2357;47.316;-1.348;2023-05-29T03:12:07;19.00;99.90
4687;DHT22;2357;47.316;-1.348;2023-05-29T03:14:33;19.10;99.90
4687;DHT22;2357;47.316;-1.348;2023-05-29T03:17:03;19.10;99.90
4687;DHT22;2357;47.316;-1.348;2023-05-29T03:19:29;19.00;99.90
4687;DHT22;2357;47.316;-1.348;2023-05-29T03:21:55;18.90;99.90
4687;DHT22;2357;47.316;-1.348;2023-05-29T03:24:20;18.80;99.90
4687;DHT22;2357;47.316;-1.348;2023-05-29T03:26:46;18.90;99.90
4687;DHT22;2357;47.316;-1.348;2023-05-29T03:29:12;18.80;99.90
4687;DHT22;2357;47.316;-1.348;2023-05-29T03:31:37;18.80;99.90
4687;DHT22;2357;47.316;-1.348;2023-05-29T03:34:03;18.70;99.90
4687;DHT22;2357;47.316;-1.348;2023-05-29T03:36:29;18.70;99.90
4687;DHT22;2357;47.316;-1.348;2023-05-29T03:38:54;18.70;99.90
4687;DHT22;2357;47.316;-1.348;2023-05-29T03:41:20;18.60;99.90
4687;DHT22;2357;47.316;-1.348;2023-05-29T03:43:46;18.60;99.90
4687;DHT22;2357;47.316;-1.348;2023-05-29T03:46:12;18.60;99.90
4687;DHT22;2357;47.316;-1.348;2023-05-29T03:48:37;18.50;99.90
4687;DHT22;2357;47.316;-1.348;2023-05-29T03:51:05;18.50;99.90
4687;DHT22;2357;47.316;-1.348;2023-05-29T03:53:30;18.60;99.90
4687;DHT22;2357;47.316;-1.348;2023-05-29T03:55:56;18.60;99.90
4687;DHT22;2357;47.316;-1.348;2023-05-29T03:58:22;18.60;99.90
4687;DHT22;2357;47.316;-1.348;2023-05-29T04:00:47;18.50;99.90
4687;DHT22;2357;47.316;-1.348;2023-05-29T04:03:13;18.50;99.90
4687;DHT22;2357;47.316;-1.348;2023-05-29T04:05:39;18.40;99.90
4687;DHT22;2357;47.316;-1.348;2023-05-29T04:08:05;18.40;99.90
4687;DHT22;2357;47.316;-1.348;2023-05-29T04:10:30;18.30;99.90
4687;DHT22;2357;47.316;-1.348;2023-05-29T04:12:59;18.20;99.90
4687;DHT22;2357;47.316;-1.348;2023-05-29T04:15:26;18.20;99.90
4687;DHT22;2357;47.316;-1.348;2023-05-29T04:17:52;18.20;99.90
4687;DHT22;2357;47.316;-1.348;2023-05-29T04:20:17;18.20;99.90
4687;DHT22;2357;47.316;-1.348;2023-05-29T04:22:43;18.20;99.90
4687;DHT22;2357;47.316;-1.348;2023-05-29T04:25:08;18.10;99.90
4687;DHT22;2357;47.316;-1.348;2023-05-29T04:27:34;18.10;99.90
4687;DHT22;2357;47.316;-1.348;2023-05-29T04:30:06;18.10;99.90
4687;DHT22;2357;47.316;-1.348;2023-05-29T04:32:33;18.20;99.90
4687;DHT22;2357;47.316;-1.348;2023-05-29T04:34:59;18.10;99.90
4687;DHT22;2357;47.316;-1.348;2023-05-29T04:37:29;18.10;99.90
4687;DHT22;2357;47.316;-1.348;2023-05-29T04:39:58;18.00;99.90
4687;DHT22;2357;47.316;-1.348;2023-05-29T04:42:23;18.00;99.90
4687;DHT22;2357;47.316;-1.348;2023-05-29T04:44:51;17.90;99.90
4687;DHT22;2357;47.316;-1.348;2023-05-29T04:47:18;18.00;99.90
4687;DHT22;2357;47.316;-1.348;2023-05-29T04:49:44;18.00;99.90
4687;DHT22;2357;47.316;-1.348;2023-05-29T04:52:14;18.00;99.90
4687;DHT22;2357;47.316;-1.348;2023-05-29T04:54:40;18.00;99.90
4687;DHT22;2357;47.316;-1.348;2023-05-29T04:57:06;18.00;99.90
4687;DHT22;2357;47.316;-1.348;2023-05-29T04:59:32;18.00;99.90
4687;DHT22;2357;47.316;-1.348;2023-05-29T05:01:57;17.90;99.90
4687;DHT22;2357;47.316;-1.348;2023-05-29T05:04:23;17.90;99.90
4687;DHT22;2357;47.316;-1.348;2023-05-29T05:06:48;18.00;99.90
4687;DHT22;2357;47.316;-1.348;2023-05-29T05:09:14;18.00;99.90
4687;DHT22;2357;47.316;-1.348;2023-05-29T05:11:40;17.80;99.90
4687;DHT22;2357;47.316;-1.348;2023-05-29T05:14:05;17.80;99.90
4687;DHT22;2357;47.316;-1.348;2023-05-29T05:16:31;17.90;99.90
4687;DHT22;2357;47.316;-1.348;2023-05-29T05:18:58;17.90;99.90
4687;DHT22;2357;47.316;-1.348;2023-05-29T05:21:24;17.90;99.90
4687;DHT22;2357;47.316;-1.348;2023-05-29T05:23:49;17.90;99.90
4687;DHT22;2357;47.316;-1.348;2023-05-29T05:26:15;17.60;99.90
4687;DHT22;2357;47.316;-1.348;2023-05-29T05:28:41;17.80;99.90
4687;DHT22;2357;47.316;-1.348;2023-05-29T05:31:06;17.80;99.90
4687;DHT22;2357;47.316;-1.348;2023-05-29T05:33:32;17.90;99.90
4687;DHT22;2357;47.316;-1.348;2023-05-29T05:35:58;17.90;99.90
4687;DHT22;2357;47.316;-1.348;2023-05-29T05:38:24;17.90;99.90
4687;DHT22;2357;47.316;-1.348;2023-05-29T05:40:49;17.90;99.90
4687;DHT22;2357;47.316;-1.348;2023-05-29T05:43:15;17.90;99.90
4687;DHT22;2357;47.316;-1.348;2023-05-29T05:45:41;17.90;99.90
4687;DHT22;2357;47.316;-1.348;2023-05-29T05:48:08;17.90;99.90
4687;DHT22;2357;47.316;-1.348;2023-05-29T05:50:34;17.90;99.90
4687;DHT22;2357;47.316;-1.348;2023-05-29T05:53:00;17.90;99.90
4687;DHT22;2357;47.316;-1.348;2023-05-29T05:55:26;17.90;99.90
4687;DHT22;2357;47.316;-1.348;2023-05-29T05:57:53;17.90;99.90
4687;DHT22;2357;47.316;-1.348;2023-05-29T06:00:19;17.90;99.90
4687;DHT22;2357;47.316;-1.348;2023-05-29T06:02:45;17.90;99.90
4687;DHT22;2357;47.316;-1.348;2023-05-29T06:05:11;17.90;99.90
4687;DHT22;2357;47.316;-1.348;2023-05-29T06:07:37;18.10;99.90
4687;DHT22;2357;47.316;-1.348;2023-05-29T06:10:04;18.00;99.90
4687;DHT22;2357;47.316;-1.348;2023-05-29T06:12:30;18.00;99.90
4687;DHT22;2357;47.316;-1.348;2023-05-29T06:14:55;18.10;99.90
4687;DHT22;2357;47.316;-1.348;2023-05-29T06:17:22;18.00;99.90
4687;DHT22;2357;47.316;-1.348;2023-05-29T06:19:48;18.10;99.90
4687;DHT22;2357;47.316;-1.348;2023-05-29T06:22:14;18.20;99.90
4687;DHT22;2357;47.316;-1.348;2023-05-29T06:24:39;18.10;99.90
4687;DHT22;2357;47.316;-1.348;2023-05-29T06:27:05;18.10;99.90
4687;DHT22;2357;47.316;-1.348;2023-05-29T06:29:32;18.20;99.90
4687;DHT22;2357;47.316;-1.348;2023-05-29T06:31:57;18.20;99.90
4687;DHT22;2357;47.316;-1.348;2023-05-29T06:34:23;18.20;99.90
4687;DHT22;2357;47.316;-1.348;2023-05-29T06:36:49;18.20;99.90
4687;DHT22;2357;47.316;-1.348;2023-05-29T06:39:15;18.20;99.90
4687;DHT22;2357;47.316;-1.348;2023-05-29T06:41:41;18.20;99.90
4687;DHT22;2357;47.316;-1.348;2023-05-29T06:44:06;18.30;99.90
4687;DHT22;2357;47.316;-1.348;2023-05-29T06:46:32;18.30;99.90
4687;DHT22;2357;47.316;-1.348;2023-05-29T06:48:57;18.30;99.90
4687;DHT22;2357;47.316;-1.348;2023-05-29T06:51:23;18.30;99.90
4687;DHT22;2357;47.316;-1.348;2023-05-29T06:53:49;18.40;99.90
4687;DHT22;2357;47.316;-1.348;2023-05-29T06:56:14;18.50;99.90
4687;DHT22;2357;47.316;-1.348;2023-05-29T06:58:40;18.60;99.90
4687;DHT22;2357;47.316;-1.348;2023-05-29T07:01:06;18.60;99.90
4687;DHT22;2357;47.316;-1.348;2023-05-29T07:03:31;18.70;99.90
4687;DHT22;2357;47.316;-1.348;2023-05-29T07:05:57;18.80;99.90
4687;DHT22;2357;47.316;-1.348;2023-05-29T07:08:25;18.80;99.90
4687;DHT22;2357;47.316;-1.348;2023-05-29T07:10:51;18.80;99.90
4687;DHT22;2357;47.316;-1.348;2023-05-29T07:13:16;18.80;99.90
4687;DHT22;2357;47.316;-1.348;2023-05-29T07:15:43;18.80;99.90
4687;DHT22;2357;47.316;-1.348;2023-05-29T07:18:09;18.80;99.90
4687;DHT22;2357;47.316;-1.348;2023-05-29T07:20:36;18.90;99.90
4687;DHT22;2357;47.316;-1.348;2023-05-29T07:23:01;18.70;99.90
4687;DHT22;2357;47.316;-1.348;2023-05-29T07:25:27;18.80;99.90
4687;DHT22;2357;47.316;-1.348;2023-05-29T07:27:53;18.80;99.90
4687;DHT22;2357;47.316;-1.348;2023-05-29T07:30:18;18.90;99.90
4687;DHT22;2357;47.316;-1.348;2023-05-29T07:32:44;18.90;99.90
4687;DHT22;2357;47.316;-1.348;2023-05-29T07:35:10;18.90;99.90
4687;DHT22;2357;47.316;-1.348;2023-05-29T07:37:36;19.00;99.90
4687;DHT22;2357;47.316;-1.348;2023-05-29T07:40:02;19.10;99.90
4687;DHT22;2357;47.316;-1.348;2023-05-29T07:42:32;19.20;99.90
4687;DHT22;2357;47.316;-1.348;2023-05-29T07:44:58;19.30;99.90
4687;DHT22;2357;47.316;-1.348;2023-05-29T07:47:23;19.30;99.90
4687;DHT22;2357;47.316;-1.348;2023-05-29T07:49:49;19.30;99.90
4687;DHT22;2357;47.316;-1.348;2023-05-29T07:52:15;19.30;99.90
4687;DHT22;2357;47.316;-1.348;2023-05-29T07:54:41;19.40;99.90
4687;DHT22;2357;47.316;-1.348;2023-05-29T07:57:06;19.50;99.90
4687;DHT22;2357;47.316;-1.348;2023-05-29T07:59:35;19.60;99.90
4687;DHT22;2357;47.316;-1.348;2023-05-29T08:02:01;19.70;99.90
4687;DHT22;2357;47.316;-1.348;2023-05-29T08:04:28;19.80;99.90
4687;DHT22;2357;47.316;-1.348;2023-05-29T08:06:54;19.90;99.90
4687;DHT22;2357;47.316;-1.348;2023-05-29T08:09:20;20.00;99.90
4687;DHT22;2357;47.316;-1.348;2023-05-29T08:11:46;20.00;99.90
4687;DHT22;2357;47.316;-1.348;2023-05-29T08:14:14;20.10;99.90
4687;DHT22;2357;47.316;-1.348;2023-05-29T08:16:40;20.10;99.90
4687;DHT22;2357;47.316;-1.348;2023-05-29T08:19:06;20.10;99.90
4687;DHT22;2357;47.316;-1.348;2023-05-29T08:21:31;20.10;99.90
4687;DHT22;2357;47.316;-1.348;2023-05-29T08:23:58;20.00;99.90
4687;DHT22;2357;47.316;-1.348;2023-05-29T08:26:24;20.10;99.90
4687;DHT22;2357;47.316;-1.348;2023-05-29T08:28:49;20.20;99.90
4687;DHT22;2357;47.316;-1.348;2023-05-29T08:31:15;20.30;99.90
4687;DHT22;2357;47.316;-1.348;2023-05-29T08:33:41;20.30;99.90
4687;DHT22;2357;47.316;-1.348;2023-05-29T08:36:07;20.40;99.90
4687;DHT22;2357;47.316;-1.348;2023-05-29T08:38:34;20.50;99.90
4687;DHT22;2357;47.316;-1.348;2023-05-29T08:41:01;20.50;99.90
4687;DHT22;2357;47.316;-1.348;2023-05-29T08:43:31;20.70;99.90
4687;DHT22;2357;47.316;-1.348;2023-05-29T08:46:00;20.80;99.90
4687;DHT22;2357;47.316;-1.348;2023-05-29T08:48:28;20.80;99.90
4687;DHT22;2357;47.316;-1.348;2023-05-29T08:50:55;20.90;99.90
4687;DHT22;2357;47.316;-1.348;2023-05-29T08:53:22;20.90;99.90
4687;DHT22;2357;47.316;-1.348;2023-05-29T08:55:48;21.00;99.90
4687;DHT22;2357;47.316;-1.348;2023-05-29T08:58:17;21.10;99.90
4687;DHT22;2357;47.316;-1.348;2023-05-29T09:00:45;21.30;99.90
4687;DHT22;2357;47.316;-1.348;2023-05-29T09:03:11;21.30;99.90
4687;DHT22;2357;47.316;-1.348;2023-05-29T09:05:39;21.40;99.90
4687;DHT22;2357;47.316;-1.348;2023-05-29T09:08:06;21.50;99.90
4687;DHT22;2357;47.316;-1.348;2023-05-29T09:10:33;21.60;99.90
4687;DHT22;2357;47.316;-1.348;2023-05-29T09:12:59;21.70;99.90
4687;DHT22;2357;47.316;-1.348;2023-05-29T09:15:25;21.80;99.90
4687;DHT22;2357;47.316;-1.348;2023-05-29T09:20:18;21.90;99.90
4687;DHT22;2357;47.316;-1.348;2023-05-29T09:25:29;22.00;99.90
4687;DHT22;2357;47.316;-1.348;2023-05-29T09:28:03;22.10;99.90
4687;DHT22;2357;47.316;-1.348;2023-05-29T09:30:37;22.30;99.90
4687;DHT22;2357;47.316;-1.348;2023-05-29T09:33:04;22.30;99.90
4687;DHT22;2357;47.316;-1.348;2023-05-29T09:38:00;22.50;99.90
4687;DHT22;2357;47.316;-1.348;2023-05-29T09:40:29;22.50;99.90
4687;DHT22;2357;47.316;-1.348;2023-05-29T09:42:55;22.70;99.90
4687;DHT22;2357;47.316;-1.348;2023-05-29T09:45:21;22.70;99.90
4687;DHT22;2357;47.316;-1.348;2023-05-29T09:47:50;22.80;99.90
4687;DHT22;2357;47.316;-1.348;2023-05-29T09:50:19;22.80;99.90
4687;DHT22;2357;47.316;-1.348;2023-05-29T09:52:48;22.70;99.90
4687;DHT22;2357;47.316;-1.348;2023-05-29T09:55:19;22.70;99.90
4687;DHT22;2357;47.316;-1.348;2023-05-29T09:57:47;22.60;99.90
4687;DHT22;2357;47.316;-1.348;2023-05-29T10:00:15;22.80;99.90
4687;DHT22;2357;47.316;-1.348;2023-05-29T10:02:41;22.80;99.90
4687;DHT22;2357;47.316;-1.348;2023-05-29T10:05:07;22.90;99.90
4687;DHT22;2357;47.316;-1.348;2023-05-29T10:07:36;22.90;99.90
4687;DHT22;2357;47.316;-1.348;2023-05-29T10:10:04;22.80;99.90
4687;DHT22;2357;47.316;-1.348;2023-05-29T10:12:36;23.00;99.90
4687;DHT22;2357;47.316;-1.348;2023-05-29T10:15:06;23.10;99.90
4687;DHT22;2357;47.316;-1.348;2023-05-29T10:17:38;23.10;99.90
4687;DHT22;2357;47.316;-1.348;2023-05-29T10:20:06;23.20;99.90
4687;DHT22;2357;47.316;-1.348;2023-05-29T10:22:39;23.20;99.90
4687;DHT22;2357;47.316;-1.348;2023-05-29T10:25:08;23.20;99.90
4687;DHT22;2357;47.316;-1.348;2023-05-29T10:27:34;23.30;99.90
4687;DHT22;2357;47.316;-1.348;2023-05-29T10:30:15;23.40;99.90
4687;DHT22;2357;47.316;-1.348;2023-05-29T10:35:40;23.50;99.90
4687;DHT22;2357;47.316;-1.348;2023-05-29T10:38:13;23.40;99.90
4687;DHT22;2357;47.316;-1.348;2023-05-29T10:40:44;23.60;99.90
4687;DHT22;2357;47.316;-1.348;2023-05-29T10:43:33;23.70;99.90
4687;DHT22;2357;47.316;-1.348;2023-05-29T10:45:59;23.80;99.90
4687;DHT22;2357;47.316;-1.348;2023-05-29T10:50:55;23.80;99.90
4687;DHT22;2357;47.316;-1.348;2023-05-29T10:53:31;23.80;99.90
4687;DHT22;2357;47.316;-1.348;2023-05-29T10:55:56;24.10;99.90
4687;DHT22;2357;47.316;-1.348;2023-05-29T10:58:25;24.20;99.90
4687;DHT22;2357;47.316;-1.348;2023-05-29T11:00:55;24.50;99.90
4687;DHT22;2357;47.316;-1.348;2023-05-29T11:03:41;24.60;99.90
4687;DHT22;2357;47.316;-1.348;2023-05-29T11:06:18;24.80;99.90
4687;DHT22;2357;47.316;-1.348;2023-05-29T11:08:45;25.00;99.90
4687;DHT22;2357;47.316;-1.348;2023-05-29T11:11:13;25.10;99.90
4687;DHT22;2357;47.316;-1.348;2023-05-29T11:13:39;25.10;99.90
4687;DHT22;2357;47.316;-1.348;2023-05-29T11:18:42;25.60;99.90
4687;DHT22;2357;47.316;-1.348;2023-05-29T11:21:30;25.60;99.90
4687;DHT22;2357;47.316;-1.348;2023-05-29T11:23:58;25.40;99.90
4687;DHT22;2357;47.316;-1.348;2023-05-29T11:26:27;25.40;99.90
4687;DHT22;2357;47.316;-1.348;2023-05-29T11:28:53;25.50;99.90
4687;DHT22;2357;47.316;-1.348;2023-05-29T11:31:20;25.60;99.90
4687;DHT22;2357;47.316;-1.348;2023-05-29T11:33:49;25.70;99.90
4687;DHT22;2357;47.316;-1.348;2023-05-29T11:36:17;25.90;99.90
4687;DHT22;2357;47.316;-1.348;2023-05-29T11:38:45;25.80;99.90
4687;DHT22;2357;47.316;-1.348;2023-05-29T11:41:11;25.90;99.90
4687;DHT22;2357;47.316;-1.348;2023-05-29T11:43:36;26.20;99.90
4687;DHT22;2357;47.316;-1.348;2023-05-29T11:46:02;26.20;99.90
4687;DHT22;2357;47.316;-1.348;2023-05-29T11:48:28;26.20;99.90
4687;DHT22;2357;47.316;-1.348;2023-05-29T11:50:53;26.40;99.90
4687;DHT22;2357;47.316;-1.348;2023-05-29T11:53:19;26.40;99.90
4687;DHT22;2357;47.316;-1.348;2023-05-29T11:55:45;26.50;99.90
4687;DHT22;2357;47.316;-1.348;2023-05-29T11:58:10;26.40;99.90
4687;DHT22;2357;47.316;-1.348;2023-05-29T12:00:38;26.60;99.90
4687;DHT22;2357;47.316;-1.348;2023-05-29T12:03:06;26.60;99.90
4687;DHT22;2357;47.316;-1.348;2023-05-29T12:05:43;26.60;99.90
4687;DHT22;2357;47.316;-1.348;2023-05-29T12:08:09;26.90;99.90
4687;DHT22;2357;47.316;-1.348;2023-05-29T12:10:35;27.00;99.90
4687;DHT22;2357;47.316;-1.348;2023-05-29T12:13:00;27.10;99.90
4687;DHT22;2357;47.316;-1.348;2023-05-29T12:15:26;26.90;99.90
4687;DHT22;2357;47.316;-1.348;2023-05-29T12:17:53;27.10;99.90
4687;DHT22;2357;47.316;-1.348;2023-05-29T12:20:22;27.10;99.90
4687;DHT22;2357;47.316;-1.348;2023-05-29T12:22:49;27.30;99.90
4687;DHT22;2357;47.316;-1.348;2023-05-29T12:25:16;27.00;99.90
4687;DHT22;2357;47.316;-1.348;2023-05-29T12:27:44;27.10;99.90
4687;DHT22;2357;47.316;-1.348;2023-05-29T12:30:21;26.90;99.90
4687;DHT22;2357;47.316;-1.348;2023-05-29T12:32:48;27.10;99.90
4687;DHT22;2357;47.316;-1.348;2023-05-29T12:35:20;27.10;99.90
4687;DHT22;2357;47.316;-1.348;2023-05-29T12:37:48;27.20;99.90
4687;DHT22;2357;47.316;-1.348;2023-05-29T12:42:41;27.70;99.90
4687;DHT22;2357;47.316;-1.348;2023-05-29T12:45:08;27.60;99.90
4687;DHT22;2357;47.316;-1.348;2023-05-29T12:47:34;27.70;99.90
4687;DHT22;2357;47.316;-1.348;2023-05-29T12:50:22;27.60;99.90
4687;DHT22;2357;47.316;-1.348;2023-05-29T12:55:37;27.90;99.90
4687;DHT22;2357;47.316;-1.348;2023-05-29T12:58:11;28.10;99.90
4687;DHT22;2357;47.316;-1.348;2023-05-29T13:00:39;28.20;99.90
4687;DHT22;2357;47.316;-1.348;2023-05-29T13:03:06;28.20;99.90
4687;DHT22;2357;47.316;-1.348;2023-05-29T13:05:32;28.30;99.90
4687;DHT22;2357;47.316;-1.348;2023-05-29T13:07:58;28.40;99.90
4687;DHT22;2357;47.316;-1.348;2023-05-29T13:10:25;28.30;99.90
4687;DHT22;2357;47.316;-1.348;2023-05-29T13:12:51;28.50;99.90
4687;DHT22;2357;47.316;-1.348;2023-05-29T13:15:23;28.60;99.90
4687;DHT22;2357;47.316;-1.348;2023-05-29T13:17:49;28.80;99.90
4687;DHT22;2357;47.316;-1.348;2023-05-29T13:20:15;28.80;99.90
4687;DHT22;2357;47.316;-1.348;2023-05-29T13:22:42;28.80;99.90
4687;DHT22;2357;47.316;-1.348;2023-05-29T13:25:09;28.80;99.90
4687;DHT22;2357;47.316;-1.348;2023-05-29T13:27:40;28.90;99.90
4687;DHT22;2357;47.316;-1.348;2023-05-29T13:30:07;29.30;99.90
4687;DHT22;2357;47.316;-1.348;2023-05-29T13:32:34;29.20;99.90
4687;DHT22;2357;47.316;-1.348;2023-05-29T13:35:00;29.00;99.90
4687;DHT22;2357;47.316;-1.348;2023-05-29T13:37:26;28.90;99.90
4687;DHT22;2357;47.316;-1.348;2023-05-29T13:39:53;29.20;99.90
4687;DHT22;2357;47.316;-1.348;2023-05-29T13:42:19;28.90;99.90
4687;DHT22;2357;47.316;-1.348;2023-05-29T13:44:45;29.20;99.90
4687;DHT22;2357;47.316;-1.348;2023-05-29T13:47:10;29.20;99.90
4687;DHT22;2357;47.316;-1.348;2023-05-29T13:49:36;29.50;99.90
4687;DHT22;2357;47.316;-1.348;2023-05-29T13:52:03;29.70;99.90
4687;DHT22;2357;47.316;-1.348;2023-05-29T13:54:29;29.70;99.90
4687;DHT22;2357;47.316;-1.348;2023-05-29T13:57:04;29.90;99.90
4687;DHT22;2357;47.316;-1.348;2023-05-29T13:59:34;29.90;99.90
4687;DHT22;2357;47.316;-1.348;2023-05-29T14:02:00;29.90;99.90
4687;DHT22;2357;47.316;-1.348;2023-05-29T14:04:28;30.10;99.90
4687;DHT22;2357;47.316;-1.348;2023-05-29T14:06:53;30.20;99.90
4687;DHT22;2357;47.316;-1.348;2023-05-29T14:09:20;30.10;99.90
4687;DHT22;2357;47.316;-1.348;2023-05-29T14:11:56;30.10;99.90
4687;DHT22;2357;47.316;-1.348;2023-05-29T14:14:23;30.10;99.90
4687;DHT22;2357;47.316;-1.348;2023-05-29T14:16:49;30.30;99.90
4687;DHT22;2357;47.316;-1.348;2023-05-29T14:19:15;30.30;99.90
4687;DHT22;2357;47.316;-1.348;2023-05-29T14:21:41;30.40;99.90
4687;DHT22;2357;47.316;-1.348;2023-05-29T14:24:07;30.20;99.90
4687;DHT22;2357;47.316;-1.348;2023-05-29T14:26:33;30.50;99.90
4687;DHT22;2357;47.316;-1.348;2023-05-29T14:28:59;30.40;99.90
4687;DHT22;2357;47.316;-1.348;2023-05-29T14:31:24;30.70;99.90
4687;DHT22;2357;47.316;-1.348;2023-05-29T14:33:50;30.30;99.90
4687;DHT22;2357;47.316;-1.348;2023-05-29T14:36:15;30.30;99.90
4687;DHT22;2357;47.316;-1.348;2023-05-29T14:38:41;30.40;99.90
4687;DHT22;2357;47.316;-1.348;2023-05-29T14:41:09;30.50;99.90
4687;DHT22;2357;47.316;-1.348;2023-05-29T14:43:34;30.20;99.90
4687;DHT22;2357;47.316;-1.348;2023-05-29T14:46:00;30.00;99.90
4687;DHT22;2357;47.316;-1.348;2023-05-29T14:48:25;29.90;99.90
4687;DHT22;2357;47.316;-1.348;2023-05-29T14:50:51;30.10;99.90
4687;DHT22;2357;47.316;-1.348;2023-05-29T14:53:17;30.00;99.90
4687;DHT22;2357;47.316;-1.348;2023-05-29T14:55:43;30.20;99.90
4687;DHT22;2357;47.316;-1.348;2023-05-29T14:58:08;29.90;99.90
4687;DHT22;2357;47.316;-1.348;2023-05-29T15:00:34;30.10;99.90
4687;DHT22;2357;47.316;-1.348;2023-05-29T15:03:00;30.20;99.90
4687;DHT22;2357;47.316;-1.348;2023-05-29T15:05:26;30.40;99.90
4687;DHT22;2357;47.316;-1.348;2023-05-29T15:07:52;30.50;99.90
4687;DHT22;2357;47.316;-1.348;2023-05-29T15:10:20;30.50;99.90
4687;DHT22;2357;47.316;-1.348;2023-05-29T15:12:46;30.30;99.90
4687;DHT22;2357;47.316;-1.348;2023-05-29T15:15:12;30.20;99.90
4687;DHT22;2357;47.316;-1.348;2023-05-29T15:17:37;30.20;99.90
4687;DHT22;2357;47.316;-1.348;2023-05-29T15:20:05;30.20;99.90
4687;DHT22;2357;47.316;-1.348;2023-05-29T15:22:31;30.20;99.90
4687;DHT22;2357;47.316;-1.348;2023-05-29T15:24:56;30.10;99.90
4687;DHT22;2357;47.316;-1.348;2023-05-29T15:27:22;30.20;99.90
4687;DHT22;2357;47.316;-1.348;2023-05-29T15:29:52;30.20;99.90
4687;DHT22;2357;47.316;-1.348;2023-05-29T15:32:17;30.20;99.90
4687;DHT22;2357;47.316;-1.348;2023-05-29T15:34:43;30.30;99.90
4687;DHT22;2357;47.316;-1.348;2023-05-29T15:37:09;30.30;99.90
4687;DHT22;2357;47.316;-1.348;2023-05-29T15:39:34;30.40;99.90
4687;DHT22;2357;47.316;-1.348;2023-05-29T15:42:00;30.40;99.90
4687;DHT22;2357;47.316;-1.348;2023-05-29T15:44:25;30.50;99.90
4687;DHT22;2357;47.316;-1.348;2023-05-29T15:46:51;30.50;99.90
4687;DHT22;2357;47.316;-1.348;2023-05-29T15:49:17;30.50;99.90
4687;DHT22;2357;47.316;-1.348;2023-05-29T15:51:42;30.60;99.90
4687;DHT22;2357;47.316;-1.348;2023-05-29T15:54:08;30.60;99.90
4687;DHT22;2357;47.316;-1.348;2023-05-29T15:56:34;30.50;99.90
4687;DHT22;2357;47.316;-1.348;2023-05-29T15:58:59;30.60;99.90
4687;DHT22;2357;47.316;-1.348;2023-05-29T16:01:25;30.50;99.90
4687;DHT22;2357;47.316;-1.348;2023-05-29T16:03:51;30.60;99.90
4687;DHT22;2357;47.316;-1.348;2023-05-29T16:06:16;30.70;99.90
4687;DHT22;2357;47.316;-1.348;2023-05-29T16:08:43;30.60;99.90